Time;durP1;ratioP1;P1;durP2;ratioP2;P2;SDS_P1;SDS_P2;PMS_P1;PMS_P2;Temp;Humidity;BMP_temperature;BMP_pressure;BME280_temperature;BME280_humidity;BME280_pressure;Samples;Min_cycle;Max_cycle;Signal;HPM_P1;HPM_P2
2023/12/19 00:02:08;;;;;;;;;;;;;;;;;;5042493;28;20339;-84
2023/12/19 00:04:33;;;;;;;;;;;;;;;;;;5052878;28;19921;-83
2023/12/19 00:06:58;;;;;;;;;;;;;;;;;;5041872;28;19928;-82
2023/12/19 00:09:23;;;;;;;;;;;;;;;;;;5044528;28;19952;-84
2023/12/19 00:11:48;;;;;;;;;;;;;;;;;;5046321;28;19925;-82
2023/12/19 00:14:14;;;;;;;;;;;;;;;;;;5045108;28;19924;-84
2023/12/19 00:16:39;;;;;;;;;;;;;;;;;;5050785;28;19924;-82
2023/12/19 00:19:04;;;;;;;;;;;;;;;;;;5049902;28;19954;-84
2023/12/19 00:21:29;;;;;;;;;;;;;;;;;;5058254;28;19985;-83
2023/12/19 00:23:54;;;;;;;;;;;;;;;;;;5048128;28;19976;-84
2023/12/19 00:26:19;;;;;;;;;;;;;;;;;;5061305;28;19963;-82
2023/12/19 00:28:44;;;;;;;;;;;;;;;;;;5048281;28;19956;-84
2023/12/19 00:31:09;;;;;;;;;;;;;;;;;;5068222;28;19936;-81
2023/12/19 00:33:34;;;;;;;;;;;;;;;;;;5053752;28;19928;-82
2023/12/19 00:35:59;;;;;;;;;;;;;;;;;;5052893;28;19964;-82
2023/12/19 00:38:25;;;;;;;;;;;;;;;;;;5052205;28;19948;-82
2023/12/19 00:40:50;;;;;;;;;;;;;;;;;;5047491;28;19925;-83
2023/12/19 00:43:15;;;;;;;;;;;;;;;;;;5049008;28;20075;-82
2023/12/19 00:45:40;;;;;;;;;;;;;;;;;;5049050;28;20045;-82
2023/12/19 00:48:05;;;;;;;;;;;;;;;;;;5048417;28;19928;-82
2023/12/19 00:50:30;;;;;;;;;;;;;;;;;;5048520;28;19920;-82
2023/12/19 00:52:55;;;;;;;;;;;;;;;;;;5051095;28;19971;-84
2023/12/19 00:55:20;;;;;;;;;;;;;;;;;;5041403;28;20234;-84
2023/12/19 00:57:45;;;;;;;;;;;;;;;;;;5046625;28;20015;-83
2023/12/19 01:00:11;;;;;;;;;;;;;;;;;;5042782;28;20070;-83
2023/12/19 01:02:36;;;;;;;;;;;;;;;;;;5062988;28;19951;-84
2023/12/19 01:05:01;;;;;;;;;;;;;;;;;;5057088;28;19917;-84
2023/12/19 01:07:26;;;;;;;;;;;;;;;;;;5049120;28;20237;-83
2023/12/19 01:09:51;;;;;;;;;;;;;;;;;;5040644;28;19925;-83
2023/12/19 01:12:18;;;;;;;;;;;;;;;;;;5057041;28;19921;-81
2023/12/19 01:14:43;;;;;;;;;;;;;;;;;;5045597;28;19932;-83
2023/12/19 01:17:08;;;;;;;;;;;;;;;;;;5041593;28;19921;-82
2023/12/19 01:19:33;;;;;;;;;;;;;;;;;;5042028;28;19917;-82
2023/12/19 01:21:58;;;;;;;;;;;;;;;;;;5054042;28;19927;-84
2023/12/19 01:24:23;;;;;;;;;;;;;;;;;;5044110;28;20024;-82
2023/12/19 01:26:49;;;;;;;;;;;;;;;;;;5046194;28;19967;-84
2023/12/19 01:29:14;;;;;;;;;;;;;;;;;;5068964;28;20186;-84
2023/12/19 01:31:39;;;;;;;;;;;;;;;;;;5048744;28;19984;-83
2023/12/19 01:34:04;;;;;;;;;;;;;;;;;;5047340;28;19927;-83
2023/12/19 01:36:29;;;;;;;;;;;;;;;;;;5065097;28;19921;-81
2023/12/19 01:38:54;;;;;;;;;;;;;;;;;;5053107;28;20353;-83
2023/12/19 01:41:22;;;;;;;;;;;;;;;;;;5044935;28;19925;-84
2023/12/19 01:43:47;;;;;;;;;;;;;;;;;;5048378;28;19917;-82
2023/12/19 01:46:12;;;;;;;;;;;;;;;;;;5040145;28;19921;-82
2023/12/19 01:48:38;;;;;;;;;;;;;;;;;;5049142;28;19929;-81
2023/12/19 01:51:03;;;;;;;;;;;;;;;;;;5046626;28;19925;-82
2023/12/19 01:53:28;;;;;;;;;;;;;;;;;;5046866;28;19921;-82
2023/12/19 01:55:53;;;;;;;;;;;;;;;;;;5040576;28;19924;-83
2023/12/19 01:58:19;;;;;;;;;;;;;;;;;;5047090;28;19932;-81
2023/12/19 02:00:44;;;;;;;;;;;;;;;;;;5047672;28;19921;-82
2023/12/19 02:03:09;;;;;;;;;;;;;;;;;;5041113;28;19949;-83
2023/12/19 02:05:34;;;;;;;;;;;;;;;;;;5043675;28;19972;-82
2023/12/19 02:07:59;;;;;;;;;;;;;;;;;;5053067;28;19948;-84
2023/12/19 02:10:25;;;;;;;;;;;;;;;;;;5040314;28;19921;-82
2023/12/19 02:12:50;;;;;;;;;;;;;;;;;;5048956;28;19925;-83
2023/12/19 02:15:16;;;;;;;;;;;;;;;;;;5041206;28;19921;-83
2023/12/19 02:17:41;;;;;;;;;;;;;;;;;;5044382;28;19925;-84
2023/12/19 02:20:12;;;;;;;;;;;;;;;;;;5068276;28;19951;-83
2023/12/19 02:22:37;;;;;;;;;;;;;;;;;;5053366;28;19978;-82
2023/12/19 02:25:02;;;;;;;;;;;;;;;;;;5058744;28;20007;-82
2023/12/19 02:27:27;;;;;;;;;;;;;;;;;;5054260;28;20374;-81
2023/12/19 02:29:52;;;;;;;;;;;;;;;;;;5052292;28;19921;-83
2023/12/19 02:32:17;;;;;;;;;;;;;;;;;;5057439;28;19928;-84
2023/12/19 02:34:42;;;;;;;;;;;;;;;;;;5047840;28;19921;-84
2023/12/19 02:37:07;;;;;;;;;;;;;;;;;;5049320;28;19925;-83
2023/12/19 02:39:33;;;;;;;;;;;;;;;;;;5059076;28;19925;-82
2023/12/19 02:41:58;;;;;;;;;;;;;;;;;;5050325;28;19920;-84
2023/12/19 02:44:23;;;;;;;;;;;;;;;;;;5048686;28;19944;-81
2023/12/19 02:46:48;;;;;;;;;;;;;;;;;;5045909;28;19928;-84
2023/12/19 02:49:13;;;;;;;;;;;;;;;;;;5043673;28;19921;-82
2023/12/19 02:51:38;;;;;;;;;;;;;;;;;;5046875;28;19928;-83
2023/12/19 02:54:03;;;;;;;;;;;;;;;;;;5044190;28;19931;-82
2023/12/19 02:56:28;;;;;;;;;;;;;;;;;;5053690;28;19917;-83
2023/12/19 02:58:53;;;;;;;;;;;;;;;;;;5052814;28;19920;-82
2023/12/19 03:01:18;;;;;;;;;;;;;;;;;;5063805;28;20436;-84
2023/12/19 03:03:44;;;;;;;;;;;;;;;;;;5094759;28;20369;-83
2023/12/19 03:06:09;;;;;;;;;;;;;;;;;;5048332;28;20050;-83
2023/12/19 03:08:34;;;;;;;;;;;;;;;;;;5073361;28;19927;-81
2023/12/19 03:10:59;;;;;;;;;;;;;;;;;;5071451;28;19943;-83
2023/12/19 03:13:24;;;;;;;;;;;;;;;;;;5047326;28;19945;-82
2023/12/19 03:15:49;;;;;;;;;;;;;;;;;;5052444;28;19932;-83
2023/12/19 03:18:14;;;;;;;;;;;;;;;;;;5044553;28;19921;-82
2023/12/19 03:20:39;;;;;;;;;;;;;;;;;;5048558;28;19940;-83
2023/12/19 03:23:04;;;;;;;;;;;;;;;;;;5044833;28;19924;-82
2023/12/19 03:25:29;;;;;;;;;;;;;;;;;;5046979;28;19921;-83
2023/12/19 03:27:54;;;;;;;;;;;;;;;;;;5051482;28;19969;-81
2023/12/19 03:30:20;;;;;;;;;;;;;;;;;;5045710;28;20063;-82
2023/12/19 03:32:45;;;;;;;;;;;;;;;;;;5062689;28;20014;-83
2023/12/19 03:35:10;;;;;;;;;;;;;;;;;;5056967;28;19990;-84
2023/12/19 03:37:35;;;;;;;;;;;;;;;;;;5046835;28;19917;-82
2023/12/19 03:40:00;;;;;;;;;;;;;;;;;;5043168;28;19952;-82
2023/12/19 03:42:25;;;;;;;;;;;;;;;;;;5047621;28;19921;-83
2023/12/19 03:44:50;;;;;;;;;;;;;;;;;;5047801;28;19924;-83
2023/12/19 03:47:16;;;;;;;;;;;;;;;;;;5051825;28;19928;-83
2023/12/19 03:49:41;;;;;;;;;;;;;;;;;;5053557;28;19955;-81
2023/12/19 03:52:06;;;;;;;;;;;;;;;;;;5050188;28;19921;-84
2023/12/19 03:54:31;;;;;;;;;;;;;;;;;;5050998;28;20318;-83
2023/12/19 03:56:56;;;;;;;;;;;;;;;;;;5048572;28;19927;-82
2023/12/19 03:59:21;;;;;;;;;;;;;;;;;;5071330;28;19988;-81
2023/12/19 04:01:48;;;;;;;;;;;;;;;;;;5048679;28;20331;-83
2023/12/19 04:04:13;;;;;;;;;;;;;;;;;;5042050;28;19927;-80
2023/12/19 04:06:38;;;;;;;;;;;;;;;;;;5064502;28;19917;-83
2023/12/19 04:09:03;;;;;;;;;;;;;;;;;;5051135;28;20016;-82
2023/12/19 04:11:28;;;;;;;;;;;;;;;;;;5053183;28;19971;-84
2023/12/19 04:13:54;;;;;;;;;;;;;;;;;;5069955;28;19939;-84
2023/12/19 04:16:19;;;;;;;;;;;;;;;;;;5067292;28;19932;-83
2023/12/19 04:18:44;;;;;;;;;;;;;;;;;;5046125;28;19968;-82
2023/12/19 04:21:09;;;;;;;;;;;;;;;;;;5059645;28;19921;-84
2023/12/19 04:23:34;;;;;;;;;;;;;;;;;;5055486;28;20059;-83
2023/12/19 04:25:59;;;;;;;;;;;;;;;;;;5056886;28;20050;-83
2023/12/19 04:28:24;;;;;;;;;;;;;;;;;;5055561;28;19917;-83
2023/12/19 04:30:49;;;;;;;;;;;;;;;;;;5063407;28;19947;-83
2023/12/19 04:33:14;;;;;;;;;;;;;;;;;;5048030;28;20289;-82
2023/12/19 04:35:39;;;;;;;;;;;;;;;;;;5054471;28;19917;-83
2023/12/19 04:38:05;;;;;;;;;;;;;;;;;;5057940;28;19928;-82
2023/12/19 04:40:30;;;;;;;;;;;;;;;;;;5050587;28;19983;-81
2023/12/19 04:42:55;;;;;;;;;;;;;;;;;;5043667;28;19927;-83
2023/12/19 04:45:20;;;;;;;;;;;;;;;;;;5042883;28;19980;-83
2023/12/19 04:47:45;;;;;;;;;;;;;;;;;;5051454;28;20004;-82
2023/12/19 04:50:10;;;;;;;;;;;;;;;;;;5051933;28;19928;-82
2023/12/19 04:52:35;;;;;;;;;;;;;;;;;;5052491;28;19943;-82
2023/12/19 04:55:01;;;;;;;;;;;;;;;;;;5041523;28;20192;-83
2023/12/19 04:57:26;;;;;;;;;;;;;;;;;;5055078;28;19917;-82
2023/12/19 04:59:51;;;;;;;;;;;;;;;;;;5042902;28;19921;-82
2023/12/19 05:02:16;;;;;;;;;;;;;;;;;;5043199;28;19921;-82
2023/12/19 05:04:41;;;;;;;;;;;;;;;;;;5037979;28;19917;-83
2023/12/19 05:07:06;;;;;;;;;;;;;;;;;;5043958;28;19940;-80
2023/12/19 05:09:32;;;;;;;;;;;;;;;;;;5054169;28;20385;-80
2023/12/19 05:11:58;;;;;;;;;;;;;;;;;;5047066;28;20075;-81
2023/12/19 05:14:23;;;;;;;;;;;;;;;;;;5041432;28;19921;-81
2023/12/19 05:16:48;;;;;;;;;;;;;;;;;;5053195;28;19925;-83
2023/12/19 05:19:13;;;;;;;;;;;;;;;;;;5049428;28;20321;-81
2023/12/19 05:21:38;;;;;;;;;;;;;;;;;;5056584;28;19935;-81
2023/12/19 05:24:03;;;;;;;;;;;;;;;;;;5044410;28;19931;-80
2023/12/19 05:26:28;;;;;;;;;;;;;;;;;;5035660;28;20008;-81
2023/12/19 05:28:54;;;;;;;;;;;;;;;;;;5052171;28;19996;-81
2023/12/19 05:31:20;;;;;;;;;;;;;;;;;;5037424;28;19981;-83
2023/12/19 05:33:45;;;;;;;;;;;;;;;;;;5046816;28;19932;-81
2023/12/19 05:36:10;;;;;;;;;;;;;;;;;;5044045;28;20228;-81
2023/12/19 05:38:35;;;;;;;;;;;;;;;;;;5038102;28;19921;-80
2023/12/19 05:41:01;;;;;;;;;;;;;;;;;;5046583;28;19940;-81
2023/12/19 05:43:27;;;;;;;;;;;;;;;;;;5054322;28;19921;-82
2023/12/19 05:45:52;;;;;;;;;;;;;;;;;;5040484;28;19939;-80
2023/12/19 05:48:17;;;;;;;;;;;;;;;;;;5037047;28;20122;-80
2023/12/19 05:50:43;;;;;;;;;;;;;;;;;;5037291;28;20282;-81
2023/12/19 05:53:08;;;;;;;;;;;;;;;;;;5037778;28;19924;-80
2023/12/19 05:55:33;;;;;;;;;;;;;;;;;;5045579;28;19928;-81
2023/12/19 05:57:58;;;;;;;;;;;;;;;;;;5049066;28;19952;-82
2023/12/19 06:00:23;;;;;;;;;;;;;;;;;;5039995;28;19932;-82
2023/12/19 06:02:48;;;;;;;;;;;;;;;;;;5037129;28;19932;-80
2023/12/19 06:05:13;;;;;;;;;;;;;;;;;;5045894;28;19925;-83
2023/12/19 06:07:38;;;;;;;;;;;;;;;;;;5048777;28;19928;-82
2023/12/19 06:10:04;;;;;;;;;;;;;;;;;;5048458;28;19929;-82
2023/12/19 06:12:29;;;;;;;;;;;;;;;;;;5041544;28;19952;-82
2023/12/19 06:14:54;;;;;;;;;;;;;;;;;;5049723;28;19940;-82
2023/12/19 06:17:19;;;;;;;;;;;;;;;;;;5070845;28;19921;-83
2023/12/19 06:19:44;;;;;;;;;;;;;;;;;;5059876;28;19929;-84
2023/12/19 06:22:10;;;;;;;;;;;;;;;;;;5047963;28;19932;-83
2023/12/19 06:24:35;;;;;;;;;;;;;;;;;;5053586;28;19917;-83
2023/12/19 06:27:00;;;;;;;;;;;;;;;;;;5044449;28;19924;-83
2023/12/19 06:29:25;;;;;;;;;;;;;;;;;;5040794;28;20362;-83
2023/12/19 06:31:51;;;;;;;;;;;;;;;;;;5045050;28;20166;-83
2023/12/19 06:34:17;;;;;;;;;;;;;;;;;;5047071;28;19946;-82
2023/12/19 06:36:42;;;;;;;;;;;;;;;;;;5051118;28;20313;-81
2023/12/19 06:39:08;;;;;;;;;;;;;;;;;;5052254;28;20458;-81
2023/12/19 06:41:33;;;;;;;;;;;;;;;;;;5051787;28;20340;-81
2023/12/19 06:43:58;;;;;;;;;;;;;;;;;;5064579;28;20329;-81
2023/12/19 06:46:23;;;;;;;;;;;;;;;;;;5046552;28;19921;-81
2023/12/19 06:48:48;;;;;;;;;;;;;;;;;;5040688;28;20035;-83
2023/12/19 06:53:47;;;;;;;;;;;;;;;;;;5011733;28;21118;-74
2023/12/19 06:56:12;;;;;;;;;;;;;;;;;;5011018;28;19928;-74
2023/12/19 06:58:37;;;;;;;;;;;;;;;;;;5010035;28;19929;-73
2023/12/19 07:01:02;;;;;;;;;;;;;;;;;;5015625;28;20385;-74
2023/12/19 07:03:27;;;;;;;;;;;;;;;;;;5018284;28;20015;-73
2023/12/19 07:05:53;;;;;;;;;;;;;;;;;;5010120;28;20470;-73
2023/12/19 07:08:18;;;;;;;;;;;;;;;;;;5019149;28;19921;-73
2023/12/19 07:10:43;;;;;;;;;;;;;;;;;;5019271;28;19921;-74
2023/12/19 07:13:08;;;;;;;;;;;;;;;;;;5020341;28;19922;-74
2023/12/19 07:15:34;;;;;;;;;;;;;;;;;;5019415;28;19921;-74
2023/12/19 07:17:59;;;;;;;;;;;;;;;;;;5017288;28;20362;-73
2023/12/19 07:20:24;;;;;;;;;;;;;;;;;;5013904;28;20993;-74
2023/12/19 07:22:50;;;;;;;;;;;;;;;;;;5016900;28;20602;-73
2023/12/19 07:25:15;;;;;;;;;;;;;;;;;;5029699;28;19933;-74
2023/12/19 07:27:40;;;;;;;;;;;;;;;;;;5028844;28;19975;-74
2023/12/19 07:30:05;;;;;;;;;;;;;;;;;;5025242;28;19921;-74
2023/12/19 07:32:31;;;;;;;;;;;;;;;;;;5033983;28;19921;-74
2023/12/19 07:34:56;;;;;;;;;;;;;;;;;;5015899;28;19928;-75
2023/12/19 07:37:21;;;;;;;;;;;;;;;;;;5027089;28;19936;-74
2023/12/19 07:39:46;;;;;;;;;;;;;;;;;;5033028;28;19927;-74
2023/12/19 07:42:12;;;;;;;;;;;;;;;;;;5020267;28;19945;-74
2023/12/19 07:44:37;;;;;;;;;;;;;;;;;;5021249;28;19925;-74
2023/12/19 07:47:03;;;;;;;;;;;;;;;;;;5022087;28;20151;-75
2023/12/19 07:49:28;;;;;;;;;;;;;;;;;;5018812;28;20001;-75
2023/12/19 07:51:53;;;;;;;;;;;;;;;;;;5014469;28;19926;-75
2023/12/19 07:54:18;;;;;;;;;;;;;;;;;;5018920;28;20444;-74
2023/12/19 07:56:43;;;;;;;;;;;;;;;;;;5020561;28;19964;-74
2023/12/19 07:59:08;;;;;;;;;;;;;;;;;;5031635;28;19928;-74
2023/12/19 08:01:34;;;;;;;;;;;;;;;;;;5013488;28;19925;-74
2023/12/19 08:03:59;;;;;;;;;;;;;;;;;;5020040;28;19921;-74
2023/12/19 08:06:24;;;;;;;;;;;;;;;;;;5019976;28;19929;-75
2023/12/19 08:08:51;;;;;;;;;;;;;;;;;;5011356;28;19921;-74
2023/12/19 08:11:16;;;;;;;;;;;;;;;;;;5016103;28;19988;-75
2023/12/19 08:13:41;;;;;;;;;;;;;;;;;;5015788;28;19975;-74
2023/12/19 08:16:07;;;;;;;;;;;;;;;;;;5017953;28;20391;-74
2023/12/19 08:18:32;;;;;;;;;;;;;;;;;;5011365;28;19921;-74
2023/12/19 08:20:57;;;;;;;;;;;;;;;;;;5018525;28;19960;-74
2023/12/19 08:23:22;;;;;;;;;;;;;;;;;;5016434;28;19925;-75
2023/12/19 08:25:47;;;;;;;;;;;;;;;;;;5022503;28;19931;-74
2023/12/19 08:28:12;;;;;;;;;;;;;;;;;;5027175;28;19922;-75
2023/12/19 08:30:38;;;;;;;;;;;;;;;;;;5010962;28;19928;-74
2023/12/19 08:33:03;;;;;;;;;;;;;;;;;;5008078;28;19929;-75
2023/12/19 08:35:29;;;;;;;;;;;;;;;;;;5025128;28;19925;-74
2023/12/19 08:37:54;;;;;;;;;;;;;;;;;;5017977;28;19921;-74
2023/12/19 08:40:19;;;;;;;;;;;;;;;;;;5014829;28;19935;-74
2023/12/19 08:42:44;;;;;;;;;;;;;;;;;;5015030;28;19922;-75
2023/12/19 08:45:09;;;;;;;;;;;;;;;;;;5011419;28;19936;-74
2023/12/19 08:47:34;;;;;;;;;;;;;;;;;;5017558;28;19921;-74
2023/12/19 08:50:00;;;;;;;;;;;;;;;;;;5014676;28;19921;-74
2023/12/19 08:52:25;;;;;;;;;;;;;;;;;;5017884;28;19928;-74
2023/12/19 08:54:51;;;;;;;;;;;;;;;;;;5020110;28;19921;-75
2023/12/19 08:57:16;;;;;;;;;;;;;;;;;;5020263;28;19929;-74
2023/12/19 08:59:41;;;;;;;;;;;;;;;;;;5024087;28;19932;-74
2023/12/19 09:02:07;;;;;;;;;;;;;;;;;;5019342;28;19928;-74
2023/12/19 09:04:32;;;;;;;;;;;;;;;;;;5024489;28;19927;-73
2023/12/19 09:06:57;;;;;;;;;;;;;;;;;;5030484;28;20004;-73
2023/12/19 09:09:22;;;;;;;;;;;;;;;;;;5029930;28;19968;-73
2023/12/19 09:11:48;;;;;;;;;;;;;;;;;;5015274;28;19921;-73
2023/12/19 09:14:13;;;;;;;;;;;;;;;;;;5022306;28;19955;-73
2023/12/19 09:16:38;;;;;;;;;;;;;;;;;;5030458;28;19921;-73
2023/12/19 09:19:03;;;;;;;;;;;;;;;;;;5028214;28;20383;-73
2023/12/19 09:21:28;;;;;;;;;;;;;;;;;;5025588;28;19956;-73
2023/12/19 09:23:53;;;;;;;;;;;;;;;;;;5016846;28;20453;-73
2023/12/19 09:26:18;;;;;;;;;;;;;;;;;;5019534;28;20393;-73
2023/12/19 09:28:44;;;;;;;;;;;;;;;;;;5022215;28;19925;-73
2023/12/19 09:31:09;;;;;;;;;;;;;;;;;;5024569;28;20016;-73
2023/12/19 09:33:37;;;;;;;;;;;;;;;;;;5017029;28;19929;-73
2023/12/19 09:36:02;;;;;;;;;;;;;;;;;;5017118;28;19921;-74
2023/12/19 09:38:27;;;;;;;;;;;;;;;;;;5017776;28;20076;-73
2023/12/19 09:40:53;;;;;;;;;;;;;;;;;;5006569;28;19925;-73
2023/12/19 09:43:18;;;;;;;;;;;;;;;;;;5007335;28;19921;-73
2023/12/19 09:45:44;;;;;;;;;;;;;;;;;;5009652;28;19944;-73
2023/12/19 09:48:09;;;;;;;;;;;;;;;;;;5008295;28;20350;-74
2023/12/19 09:50:34;;;;;;;;;;;;;;;;;;5008276;28;19929;-73
2023/12/19 09:52:59;;;;;;;;;;;;;;;;;;5009568;28;19922;-74
2023/12/19 09:55:25;;;;;;;;;;;;;;;;;;5017020;28;20004;-75
2023/12/19 09:57:50;;;;;;;;;;;;;;;;;;5017548;28;19941;-75
2023/12/19 10:00:15;;;;;;;;;;;;;;;;;;5016645;28;19925;-75
2023/12/19 10:02:41;;;;;;;;;;;;;;;;;;5017501;28;20008;-75
2023/12/19 10:05:06;;;;;;;;;;;;;;;;;;5007694;28;20017;-75
2023/12/19 10:07:31;;;;;;;;;;;;;;;;;;5008998;28;20012;-75
2023/12/19 10:09:56;;;;;;;;;;;;;;;;;;5009356;28;19925;-75
2023/12/19 10:12:22;;;;;;;;;;;;;;;;;;5008366;28;19921;-75
2023/12/19 10:14:47;;;;;;;;;;;;;;;;;;5016462;28;19927;-75
2023/12/19 10:17:12;;;;;;;;;;;;;;;;;;5020774;28;20289;-75
2023/12/19 10:19:38;;;;;;;;;;;;;;;;;;5010097;28;19925;-75
2023/12/19 10:22:03;;;;;;;;;;;;;;;;;;5008378;28;19925;-75
2023/12/19 10:24:29;;;;;;;;;;;;;;;;;;5013474;28;19928;-75
2023/12/19 10:26:54;;;;;;;;;;;;;;;;;;5020435;28;19928;-74
2023/12/19 10:29:19;;;;;;;;;;;;;;;;;;5010024;28;19926;-74
2023/12/19 10:31:44;;;;;;;;;;;;;;;;;;5016347;28;19921;-75
2023/12/19 10:34:09;;;;;;;;;;;;;;;;;;5019285;28;19925;-75
2023/12/19 10:36:34;;;;;;;;;;;;;;;;;;5008423;28;19936;-70
2023/12/19 10:38:59;;;;;;;;;;;;;;;;;;5024563;28;19921;-70
2023/12/19 10:41:25;;;;;;;;;;;;;;;;;;5012616;28;20352;-70
2023/12/19 10:43:50;;;;;;;;;;;;;;;;;;5016078;28;19925;-70
2023/12/19 10:46:16;;;;;;;;;;;;;;;;;;5012875;28;19979;-69
2023/12/19 10:48:41;;;;;;;;;;;;;;;;;;5013764;28;19995;-69
2023/12/19 10:51:07;;;;;;;;;;;;;;;;;;5013786;28;19972;-71
2023/12/19 10:53:32;;;;;;;;;;;;;;;;;;5024392;28;19928;-71
2023/12/19 10:55:57;;;;;;;;;;;;;;;;;;5033067;28;19948;-70
2023/12/19 10:58:22;;;;;;;;;;;;;;;;;;5021057;28;19921;-71
2023/12/19 11:00:47;;;;;;;;;;;;;;;;;;5011819;28;20271;-70
2023/12/19 11:03:12;;;;;;;;;;;;;;;;;;5014316;28;19921;-70
2023/12/19 11:05:37;;;;;;;;;;;;;;;;;;5020238;28;20016;-70
2023/12/19 11:08:02;;;;;;;;;;;;;;;;;;5020734;28;20413;-71
2023/12/19 11:10:30;;;;;;;;;;;;;;;;;;5023880;28;20287;-70
2023/12/19 11:12:55;;;;;;;;;;;;;;;;;;5022834;28;20300;-70
2023/12/19 11:15:20;;;;;;;;;;;;;;;;;;5020864;28;19921;-70
2023/12/19 11:17:45;;;;;;;;;;;;;;;;;;5018642;28;19924;-71
2023/12/19 11:20:12;;;;;;;;;;;;;;;;;;5022675;28;19951;-71
2023/12/19 11:22:37;;;;;;;;;;;;;;;;;;5013556;28;19929;-70
2023/12/19 11:25:02;;;;;;;;;;;;;;;;;;5020684;28;20446;-70
2023/12/19 11:27:27;;;;;;;;;;;;;;;;;;5019436;28;19967;-71
2023/12/19 11:29:56;;;;;;;;;;;;;;;;;;5009798;28;19961;-71
2023/12/19 11:32:21;;;;;;;;;;;;;;;;;;5027000;28;20028;-71
2023/12/19 11:34:46;;;;;;;;;;;;;;;;;;5012463;28;20004;-69
2023/12/19 11:37:11;;;;;;;;;;;;;;;;;;5011624;28;19918;-70
2023/12/19 11:39:36;;;;;;;;;;;;;;;;;;5026590;28;20298;-70
2023/12/19 11:42:01;;;;;;;;;;;;;;;;;;5028206;28;19929;-70
2023/12/19 11:44:26;;;;;;;;;;;;;;;;;;5008335;28;19937;-69
2023/12/19 11:46:51;;;;;;;;;;;;;;;;;;5012799;28;19921;-70
2023/12/19 11:49:17;;;;;;;;;;;;;;;;;;5012472;28;19921;-70
2023/12/19 11:51:42;;;;;;;;;;;;;;;;;;5025018;28;19929;-69
2023/12/19 11:54:10;;;;;;;;;;;;;;;;;;5023481;28;19925;-70
2023/12/19 11:56:35;;;;;;;;;;;;;;;;;;5022465;28;19955;-69
2023/12/19 11:59:02;;;;;;;;;;;;;;;;;;5014294;28;19929;-70
2023/12/19 12:01:28;;;;;;;;;;;;;;;;;;5010392;28;20402;-70
2023/12/19 12:03:53;;;;;;;;;;;;;;;;;;5021078;28;19948;-70
2023/12/19 12:06:19;;;;;;;;;;;;;;;;;;5010050;28;19925;-70
2023/12/19 12:08:44;;;;;;;;;;;;;;;;;;5016918;28;20412;-69
2023/12/19 12:11:09;;;;;;;;;;;;;;;;;;5024466;28;20441;-70
2023/12/19 12:13:35;;;;;;;;;;;;;;;;;;5016731;28;19927;-70
2023/12/19 12:16:00;;;;;;;;;;;;;;;;;;5032422;28;20012;-69
2023/12/19 12:18:26;;;;;;;;;;;;;;;;;;5021316;28;19935;-69
2023/12/19 12:20:51;;;;;;;;;;;;;;;;;;5025124;28;19984;-70
2023/12/19 12:23:17;;;;;;;;;;;;;;;;;;5015865;28;19921;-69
2023/12/19 12:25:42;;;;;;;;;;;;;;;;;;5013448;28;19918;-69
2023/12/19 12:28:07;;;;;;;;;;;;;;;;;;5019095;28;20370;-70
2023/12/19 12:30:33;;;;;;;;;;;;;;;;;;5023584;28;19924;-70
2023/12/19 12:32:58;;;;;;;;;;;;;;;;;;5023590;28;19925;-69
2023/12/19 12:35:24;;;;;;;;;;;;;;;;;;5014734;28;19969;-69
2023/12/19 12:37:49;;;;;;;;;;;;;;;;;;5029984;28;20388;-69
2023/12/19 12:40:15;;;;;;;;;;;;;;;;;;5014345;28;19922;-70
2023/12/19 12:42:40;;;;;;;;;;;;;;;;;;5027455;28;19924;-70
2023/12/19 12:45:06;;;;;;;;;;;;;;;;;;5009382;28;20351;-70
2023/12/19 12:47:31;;;;;;;;;;;;;;;;;;5019239;28;19960;-70
2023/12/19 12:49:56;;;;;;;;;;;;;;;;;;5011752;28;19961;-69
2023/12/19 12:52:21;;;;;;;;;;;;;;;;;;5012932;28;20679;-70
2023/12/19 12:54:46;;;;;;;;;;;;;;;;;;5010652;28;19917;-69
2023/12/19 12:57:11;;;;;;;;;;;;;;;;;;5010539;28;19925;-69
2023/12/19 12:59:38;;;;;;;;;;;;;;;;;;5010751;28;19933;-69
2023/12/19 13:02:04;;;;;;;;;;;;;;;;;;5010340;28;20521;-70
2023/12/19 13:04:29;;;;;;;;;;;;;;;;;;5018262;28;20064;-69
2023/12/19 13:06:54;;;;;;;;;;;;;;;;;;5011200;28;19924;-69
2023/12/19 13:09:19;;;;;;;;;;;;;;;;;;5017955;28;19917;-69
2023/12/19 13:11:45;;;;;;;;;;;;;;;;;;5011629;28;20024;-69
2023/12/19 13:14:10;;;;;;;;;;;;;;;;;;5010758;28;20411;-70
2023/12/19 13:16:35;;;;;;;;;;;;;;;;;;5010890;28;19917;-69
2023/12/19 13:19:00;;;;;;;;;;;;;;;;;;5010718;28;19924;-69
2023/12/19 13:21:25;;;;;;;;;;;;;;;;;;5010269;28;19925;-69
2023/12/19 13:23:52;;;;;;;;;;;;;;;;;;5009216;28;19929;-69
2023/12/19 13:26:17;;;;;;;;;;;;;;;;;;5018460;28;20362;-69
2023/12/19 13:28:42;;;;;;;;;;;;;;;;;;5009077;28;19929;-69
2023/12/19 13:31:08;;;;;;;;;;;;;;;;;;5017454;28;19917;-69
2023/12/19 13:33:33;;;;;;;;;;;;;;;;;;5012792;28;19917;-69
2023/12/19 13:35:58;;;;;;;;;;;;;;;;;;5014420;28;19925;-69
2023/12/19 13:38:23;;;;;;;;;;;;;;;;;;5009329;28;19923;-69
2023/12/19 13:40:48;;;;;;;;;;;;;;;;;;5005713;28;20009;-69
2023/12/19 13:43:14;;;;;;;;;;;;;;;;;;5010721;28;19918;-69
2023/12/19 13:45:39;;;;;;;;;;;;;;;;;;5012489;28;19917;-68
2023/12/19 13:48:06;;;;;;;;;;;;;;;;;;5017286;28;19951;-68
2023/12/19 13:50:31;;;;;;;;;;;;;;;;;;5008756;28;19922;-68
2023/12/19 13:52:56;;;;;;;;;;;;;;;;;;5010577;28;19926;-68
2023/12/19 13:55:21;;;;;;;;;;;;;;;;;;5010189;28;19918;-67
2023/12/19 13:57:46;;;;;;;;;;;;;;;;;;5008896;28;20048;-68
2023/12/19 14:00:14;;;;;;;;;;;;;;;;;;5003801;28;20446;-68
2023/12/19 14:02:39;;;;;;;;;;;;;;;;;;5031753;28;20542;-68
2023/12/19 14:05:05;;;;;;;;;;;;;;;;;;5014483;28;20366;-67
2023/12/19 14:07:30;;;;;;;;;;;;;;;;;;5013970;28;19936;-68
2023/12/19 14:09:55;;;;;;;;;;;;;;;;;;5025403;28;19917;-68
2023/12/19 14:12:21;;;;;;;;;;;;;;;;;;5007727;28;20008;-68
2023/12/19 14:14:46;;;;;;;;;;;;;;;;;;5008533;28;19925;-66
2023/12/19 14:17:11;;;;;;;;;;;;;;;;;;5021625;28;19917;-68
2023/12/19 14:19:36;;;;;;;;;;;;;;;;;;5013802;28;19930;-68
2023/12/19 14:22:01;;;;;;;;;;;;;;;;;;5014076;28;19932;-69
2023/12/19 14:24:27;;;;;;;;;;;;;;;;;;5014139;28;19918;-68
2023/12/19 14:26:53;;;;;;;;;;;;;;;;;;5013435;28;19921;-68
2023/12/19 14:29:18;;;;;;;;;;;;;;;;;;5019629;28;19927;-68
2023/12/19 14:31:43;;;;;;;;;;;;;;;;;;5015405;28;20016;-68
2023/12/19 14:34:08;;;;;;;;;;;;;;;;;;5022895;28;19934;-68
2023/12/19 14:36:33;;;;;;;;;;;;;;;;;;5014735;28;20333;-68
2023/12/19 14:38:58;;;;;;;;;;;;;;;;;;5016342;28;20566;-68
2023/12/19 14:41:24;;;;;;;;;;;;;;;;;;5022354;28;19925;-68
2023/12/19 14:43:49;;;;;;;;;;;;;;;;;;5015792;28;19917;-68
2023/12/19 14:46:14;;;;;;;;;;;;;;;;;;5021695;28;20004;-68
2023/12/19 14:48:39;;;;;;;;;;;;;;;;;;5012969;28;19921;-68
2023/12/19 14:51:04;;;;;;;;;;;;;;;;;;5014335;28;20393;-68
2023/12/19 14:53:30;;;;;;;;;;;;;;;;;;5022225;28;19936;-68
2023/12/19 14:55:55;;;;;;;;;;;;;;;;;;5019150;28;19936;-68
2023/12/19 14:58:20;;;;;;;;;;;;;;;;;;5033387;28;19929;-68
2023/12/19 15:00:45;;;;;;;;;;;;;;;;;;5022433;28;19928;-68
2023/12/19 15:03:11;;;;;;;;;;;;;;;;;;5020472;28;19929;-68
2023/12/19 15:05:36;;;;;;;;;;;;;;;;;;5022569;28;19918;-68
2023/12/19 15:08:01;;;;;;;;;;;;;;;;;;5021783;28;20013;-68
2023/12/19 15:10:26;;;;;;;;;;;;;;;;;;5021290;28;20024;-68
2023/12/19 15:12:51;;;;;;;;;;;;;;;;;;5023545;28;19921;-68
2023/12/19 15:15:18;;;;;;;;;;;;;;;;;;5021916;28;20295;-68
2023/12/19 15:17:43;;;;;;;;;;;;;;;;;;5023444;28;19925;-69
2023/12/19 15:20:09;;;;;;;;;;;;;;;;;;5012273;28;19934;-69
2023/12/19 15:22:34;;;;;;;;;;;;;;;;;;5013112;28;20290;-68
2023/12/19 15:24:59;;;;;;;;;;;;;;;;;;5012383;28;20039;-68
2023/12/19 15:27:24;;;;;;;;;;;;;;;;;;5012119;28;19917;-68
2023/12/19 15:29:53;;;;;;;;;;;;;;;;;;5014819;28;19921;-68
2023/12/19 15:32:18;;;;;;;;;;;;;;;;;;5012894;28;19917;-68
2023/12/19 15:34:43;;;;;;;;;;;;;;;;;;5017210;28;19972;-68
2023/12/19 15:37:08;;;;;;;;;;;;;;;;;;5021531;28;19925;-68
2023/12/19 15:39:34;;;;;;;;;;;;;;;;;;5011684;28;20338;-68
2023/12/19 15:41:59;;;;;;;;;;;;;;;;;;5012714;28;20012;-68
2023/12/19 15:44:24;;;;;;;;;;;;;;;;;;5011861;28;20063;-68
2023/12/19 15:46:49;;;;;;;;;;;;;;;;;;5020950;28;19929;-68
2023/12/19 15:49:16;;;;;;;;;;;;;;;;;;5018205;28;19917;-68
2023/12/19 15:51:42;;;;;;;;;;;;;;;;;;5011802;28;19987;-68
2023/12/19 15:54:07;;;;;;;;;;;;;;;;;;5011610;28;19922;-69
2023/12/19 15:56:32;;;;;;;;;;;;;;;;;;5011043;28;19922;-68
2023/12/19 15:58:57;;;;;;;;;;;;;;;;;;5010508;28;19928;-68
2023/12/19 16:01:22;;;;;;;;;;;;;;;;;;5011943;28;19933;-68
2023/12/19 16:03:48;;;;;;;;;;;;;;;;;;5015166;28;19932;-68
2023/12/19 16:06:15;;;;;;;;;;;;;;;;;;5023501;28;19917;-68
2023/12/19 16:08:44;;;;;;;;;;;;;;;;;;5012783;28;20325;-68
2023/12/19 16:11:09;;;;;;;;;;;;;;;;;;5012166;28;20238;-68
2023/12/19 16:13:34;;;;;;;;;;;;;;;;;;5011536;28;20417;-68
2023/12/19 16:16:00;;;;;;;;;;;;;;;;;;5010946;28;19917;-68
2023/12/19 16:18:25;;;;;;;;;;;;;;;;;;5011002;28;19917;-68
2023/12/19 16:20:50;;;;;;;;;;;;;;;;;;5010905;28;20334;-68
2023/12/19 16:23:15;;;;;;;;;;;;;;;;;;5018888;28;20455;-68
2023/12/19 16:25:40;;;;;;;;;;;;;;;;;;5014232;28;19918;-68
2023/12/19 16:28:05;;;;;;;;;;;;;;;;;;5012572;28;19918;-70
2023/12/19 16:30:30;;;;;;;;;;;;;;;;;;5011585;28;20386;-68
2023/12/19 16:32:56;;;;;;;;;;;;;;;;;;5011919;28;19925;-68
2023/12/19 16:35:21;;;;;;;;;;;;;;;;;;5011347;28;20073;-68